Date,TemperatureHighF,TemperatureAvgF,TemperatureLowF,DewpointHighF,DewpointAvgF,DewpointLowF,HumidityHigh,HumidityAvg,HumidityLow,PressureMaxIn,PressureMinIn,WindSpeedMaxMPH,WindSpeedAvgMPH,GustSpeedMaxMPH,PrecipitationSumIn
2013-3-1,34,26,14,24,20,13,96,80,62,30.27,30.16,11,3,0,0.00
2013-3-2,40,26,10,30,22,8,96,84,66,30.27,29.93,10,4,0,0.00
2013-3-3,49,37,25,38,32,25,98,85,62,29.93,29.53,8,3,0,0.00
2013-3-4,48,37,26,36,28,13,98,73,47,30.04,29.50,15,6,0,0.00
2013-3-5,37,27,18,18,15,12,88,62,42,30.32,30.04,14,6,0,0.00
2013-3-6,40,27,13,24,19,11,96,73,50,30.32,30.03,10,3,0,0.00
2013-3-7,54,36,23,32,27,21,90,70,43,30.04,29.93,13,5,0,0.00
2013-3-8,57,43,25,48,36,24,96,76,56,30.02,29.71,10,4,0,0.00
2013-3-9,67,44,30,54,42,28,99,91,61,29.72,29.40,16,7,0,0.34
2013-3-10,31,25,18,29,21,15,95,85,71,29.94,29.71,20,10,0,0.00
2013-3-11,56,30,12,33,20,10,92,69,37,29.97,29.73,12,4,0,0.00
2013-3-12,44,32,18,27,19,9,92,61,27,30.26,29.97,17,5,0,0.00
2013-3-13,50,33,14,30,22,12,94,65,37,30.31,30.06,12,4,0,0.00
2013-3-14,74,50,32,44,35,30,95,63,24,30.08,29.95,8,3,0,0.00
2013-3-15,77,57,43,45,40,36,77,56,28,29.96,29.60,9,4,0,0.00
2013-3-16,43,33,28,36,24,20,86,70,53,30.05,29.79,11,5,0,0.00
2013-3-17,48,33,25,34,27,22,98,79,54,30.02,29.58,14,5,0,0.03
2013-3-18,45,35,26,33,22,11,98,63,27,29.99,29.58,15,5,0,0.13
2013-3-19,51,38,26,31,21,14,87,52,27,30.28,29.95,11,4,0,0.00
2013-3-20,45,30,13,20,15,11,93,59,30,30.35,29.93,8,3,0,0.00
2013-3-21,40,31,25,27,20,13,76,63,51,29.94,29.72,11,6,0,0.00
2013-3-22,38,30,24,30,26,22,95,87,67,29.91,29.81,8,3,0,0.15
2013-3-23,32,29,24,30,26,22,95,91,83,30.06,29.89,10,5,0,0.02
2013-3-24,34,25,17,21,17,14,90,73,48,30.09,29.99,16,7,0,0.00
2013-3-25,29,24,14,18,16,12,89,73,57,30.29,30.09,11,6,0,0.00
2013-3-26,47,29,9,24,17,5,94,66,35,30.29,30.06,9,3,0,0.00
2013-3-27,56,40,29,32,27,23,86,62,39,30.12,30.03,7,3,0,0.00
2013-3-28,63,46,25,36,30,23,98,59,28,30.13,30.02,9,3,0,0.00
2013-3-29,71,53,29,50,38,27,93,60,33,30.09,29.89,10,4,0,0.15
2013-3-30,67,55,48,53,46,38,99,78,38,29.96,29.83,11,4,0,0.32
2013-3-31,64,48,34,44,35,31,92,66,31,30.08,29.80,20,5,0,0.01